Time;durP1;ratioP1;P1;durP2;ratioP2;P2;SDS_P1;SDS_P2;PMS_P1;PMS_P2;Temp;Humidity;BMP_temperature;BMP_pressure;BME280_temperature;BME280_humidity;BME280_pressure;Samples;Min_cycle;Max_cycle;Signal;HPM_P1;HPM_P2
2022/08/13 00:00:38;;;;;;;1.63;0.90;;;;;;;17.76;100.00;97528.63;4941220;28;20576;-65
2022/08/13 00:03:17;;;;;;;4.13;0.70;;;;;;;17.65;100.00;97532.06;4943318;29;20430;-65
2022/08/13 00:06:08;;;;;;;;;;;18.20;80.60;;;17.66;100.00;97535.50;4939382;28;20043;-65
2022/08/13 00:08:53;;;;;;;3.55;0.80;;;18.20;81.70;;;17.58;100.00;97522.91;4940489;28;19926;-65
2022/08/13 00:14:33;;;;;;;3.50;1.15;;;18.20;82.40;;;17.45;100.00;97527.41;4943073;28;20309;-65
2022/08/13 00:17:07;;;;;;;4.78;0.90;;;18.10;82.50;;;17.24;100.00;97525.34;4940592;28;20083;-65
2022/08/13 00:19:38;;;;;;;1.85;0.88;;;18.00;82.70;;;17.27;100.00;97532.16;4943209;29;20051;-65
2022/08/13 00:22:10;;;;;;;3.42;0.90;;;18.00;82.80;;;17.41;100.00;97525.94;4954564;28;20139;-65
2022/08/13 00:25:03;;;;;;;3.25;0.90;;;18.00;82.80;;;17.42;100.00;97527.59;4942901;28;20070;-65
2022/08/13 00:27:36;;;;;;;3.03;1.10;;;18.00;83.00;;;17.34;100.00;97525.53;4941282;28;20473;-64
2022/08/13 00:30:31;;;;;;;1.83;0.90;;;17.90;83.20;;;17.48;100.00;97524.53;4942903;28;20055;-65
2022/08/13 00:33:05;;;;;;;4.88;1.08;;;17.90;83.30;;;17.36;100.00;97521.00;4937779;29;20421;-64
2022/08/13 00:35:36;;;;;;;3.33;0.88;;;17.90;83.70;;;17.33;100.00;97522.06;4957992;28;20079;-65
2022/08/13 00:38:16;;;;;;;4.60;0.85;;;17.90;83.60;;;17.24;100.00;97525.34;4956945;28;20565;-65
2022/08/13 00:40:53;;;;;;;2.30;1.10;;;17.80;83.50;;;17.39;100.00;97522.56;4956444;28;20098;-65
2022/08/13 00:43:25;;;;;;;4.32;0.85;;;17.80;83.60;;;17.46;100.00;97522.00;4945588;28;20178;-65
2022/08/13 00:45:56;;;;;;;3.30;0.90;;;17.80;83.10;;;17.30;100.00;97514.41;4943215;28;20066;-65
2022/08/13 00:48:42;;;;;;;2.35;0.80;;;17.80;83.40;;;17.17;100.00;97521.44;4941784;28;20150;-65
2022/08/13 00:51:25;;;;;;;5.85;0.85;;;17.80;83.90;;;17.23;100.00;97521.03;4949817;28;20371;-65
2022/08/13 00:54:17;;;;;;;;;;;17.70;83.80;;;17.28;100.00;97518.91;4942227;28;20043;-65
2022/08/13 00:56:45;;;;;;;1.25;0.70;;;17.80;83.60;;;17.22;100.00;97514.13;4953923;28;19942;-65
2022/08/13 00:59:14;;;;;;;3.38;0.75;;;17.80;83.20;;;17.20;100.00;97517.81;4939472;28;20091;-65
2022/08/13 01:01:45;;;;;;;1.17;0.70;;;17.80;83.50;;;17.27;100.00;97509.38;4941622;28;20044;-65
2022/08/13 01:04:20;;;;;;;1.35;0.60;;;17.80;83.80;;;17.29;100.00;97504.03;4943622;28;20070;-64
2022/08/13 01:06:58;;;;;;;3.38;0.63;;;17.70;83.50;;;17.26;100.00;97517.34;4939966;28;20052;-65
2022/08/13 01:09:29;;;;;;;3.80;0.90;;;17.70;83.80;;;17.23;100.00;97513.16;4940880;28;20504;-65
2022/08/13 01:12:20;;;;;;;0.82;0.50;;;17.70;83.50;;;17.09;100.00;97514.13;4941249;28;20043;-65
2022/08/13 01:15:05;;;;;;;2.25;0.63;;;17.70;83.80;;;17.22;100.00;97510.63;4941174;28;20118;-65
2022/08/13 01:17:35;;;;;;;1.20;0.60;;;17.70;83.40;;;17.19;100.00;97513.50;4942434;28;20109;-65
2022/08/13 01:20:21;;;;;;;1.10;0.70;;;17.70;83.40;;;17.27;100.00;97506.75;4939795;29;20106;-65
2022/08/13 01:23:04;;;;;;;4.40;0.70;;;17.70;83.40;;;17.26;100.00;97501.59;4940201;29;20778;-65
2022/08/13 01:25:36;;;;;;;2.22;0.60;;;17.70;83.70;;;17.22;100.00;97506.25;4937554;29;20529;-65
2022/08/13 01:28:23;;;;;;;1.10;0.55;;;17.70;83.60;;;17.41;100.00;97502.31;4939373;28;20520;-64
2022/08/13 01:30:51;;;;;;;2.38;0.80;;;17.80;83.40;;;17.35;100.00;97503.56;4939239;28;20078;-65
2022/08/13 01:33:19;;;;;;;1.77;0.60;;;17.80;83.50;;;17.40;100.00;97506.69;4940949;28;20102;-65
2022/08/13 01:35:46;;;;;;;1.00;0.52;;;17.80;83.50;;;17.44;100.00;97505.53;4941563;29;20150;-64
2022/08/13 01:38:22;;;;;;;1.45;0.60;;;17.90;83.40;;;17.50;100.00;97507.75;4935935;29;20047;-64
2022/08/13 01:40:53;;;;;;;2.25;0.60;;;17.90;83.50;;;17.57;100.00;97510.75;4942152;28;20047;-64
2022/08/13 01:43:21;;;;;;;0.93;0.50;;;17.90;83.20;;;17.60;100.00;97510.53;4942263;28;20077;-64
2022/08/13 01:45:52;;;;;;;1.42;0.50;;;18.00;83.00;;;17.68;100.00;97510.81;4943118;28;20047;-65
2022/08/13 01:51:33;;;;;;;0.88;0.50;;;18.10;82.80;;;17.72;100.00;97520.16;4940053;29;20114;-64
2022/08/13 01:54:11;;;;;;;1.35;0.60;;;18.10;82.60;;;17.74;100.00;97520.03;4954104;28;20122;-65
2022/08/13 01:57:02;;;;;;;1.60;0.55;;;18.20;82.60;;;17.78;100.00;97514.44;4937190;28;20564;-65
2022/08/13 01:59:34;;;;;;;1.83;0.60;;;18.20;82.40;;;17.64;100.00;97517.25;4952810;28;20079;-65
2022/08/13 02:02:27;;;;;;;2.25;0.60;;;18.20;82.60;;;17.53;100.00;97518.00;4939295;28;20856;-64
2022/08/13 02:05:12;;;;;;;1.77;0.60;;;18.10;83.30;;;17.37;100.00;97513.97;4950013;28;20114;-64
2022/08/13 02:08:00;;;;;;;1.80;0.52;;;18.00;83.40;;;17.40;100.00;97516.38;4940916;28;20055;-65
2022/08/13 02:10:35;;;;;;;1.88;0.43;;;18.00;84.00;;;17.33;100.00;97519.44;4938427;28;20413;-65
2022/08/13 02:13:11;;;;;;;1.90;0.50;;;17.90;84.00;;;17.32;100.00;97516.91;4939344;28;20429;-65
2022/08/13 02:15:46;;;;;;;2.15;0.50;;;17.80;84.40;;;17.31;100.00;97515.22;4938516;28;20062;-64
2022/08/13 02:18:23;;;;;;;4.13;0.60;;;17.80;84.70;;;17.18;100.00;97525.78;4950865;28;20150;-65
2022/08/13 02:20:57;;;;;;;1.00;0.60;;;17.80;85.10;;;16.82;100.00;97530.00;4938707;29;20050;-64
2022/08/13 02:23:32;;;;;;;1.85;0.50;;;17.60;85.50;;;16.79;100.00;97524.97;4937930;28;20074;-63
2022/08/13 02:26:23;;;;;;;3.17;0.60;;;17.50;86.50;;;16.71;100.00;97520.19;4950445;28;20362;-63
2022/08/13 02:28:59;;;;;;;2.35;0.80;;;17.40;86.80;;;16.53;100.00;97524.06;4939547;29;20477;-63
2022/08/13 02:31:28;;;;;;;1.27;0.70;;;17.20;87.40;;;16.47;100.00;97527.97;4943688;28;20047;-64
2022/08/13 02:34:17;;;;;;;3.25;0.70;;;;;;;16.33;100.00;97532.44;4937057;29;20512;-64
2022/08/13 02:36:50;;;;;;;1.13;0.60;;;17.10;89.60;;;16.43;100.00;97530.88;4939497;29;20070;-64
2022/08/13 02:39:38;;;;;;;0.90;0.60;;;17.10;94.30;;;16.44;100.00;97533.38;4953162;28;20051;-63
2022/08/13 02:42:10;;;;;;;2.75;0.70;;;17.10;97.00;;;16.39;100.00;97525.00;4935949;28;20110;-64
2022/08/13 02:44:49;;;;;;;2.60;0.55;;;16.90;89.60;;;16.39;100.00;97529.41;4939760;28;20071;-64
2022/08/13 02:47:23;;;;;;;1.05;0.60;;;16.90;89.70;;;16.34;100.00;97526.28;4939714;28;20056;-64
2022/08/13 02:50:10;;;;;;;1.10;0.50;;;16.90;90.00;;;16.24;100.00;97521.66;4937078;29;20065;-63
2022/08/13 02:52:41;;;;;;;1.80;0.57;;;16.90;90.10;;;16.29;100.00;97523.97;4954717;28;20048;-64
2022/08/13 02:55:27;;;;;;;1.13;0.63;;;16.80;90.20;;;16.35;100.00;97526.16;4933916;29;20066;-64
2022/08/13 02:58:01;;;;;;;1.42;0.60;;;16.80;90.20;;;16.43;100.00;97517.78;4943083;28;20126;-64
2022/08/13 03:00:30;;;;;;;1.08;0.60;;;16.90;90.40;;;16.65;100.00;97520.66;4942023;29;20429;-63
2022/08/13 03:02:58;;;;;;;3.03;0.68;;;17.00;90.10;;;16.93;100.00;97516.16;4938210;28;20158;-64
2022/08/13 03:05:31;;;;;;;2.45;0.60;;;17.20;90.00;;;16.97;100.00;97524.63;4938419;29;20055;-64
2022/08/13 03:08:18;;;;;;;1.60;0.60;;;17.30;89.50;;;17.02;100.00;97514.69;4949296;28;20135;-64
2022/08/13 03:11:05;;;;;;;3.03;0.63;;;17.40;89.20;;;17.12;100.00;97523.56;4937701;29;20047;-64
2022/08/13 03:13:38;;;;;;;2.33;0.55;;;17.40;89.30;;;17.16;100.00;97521.59;4939353;28;20158;-64
2022/08/13 03:16:16;;;;;;;2.63;0.63;;;17.50;89.00;;;17.06;100.00;97522.22;4937167;28;20051;-64
2022/08/13 03:18:46;;;;;;;2.60;0.60;;;17.50;88.80;;;17.04;100.00;97526.72;4939874;29;20530;-64
2022/08/13 03:21:28;;;;;;;1.05;0.52;;;17.50;89.20;;;16.90;100.00;97524.22;4937833;29;20412;-64
2022/08/13 03:24:14;;;;;;;1.73;0.90;;;17.40;89.60;;;17.00;100.00;97517.41;4952580;28;20130;-63
2022/08/13 03:26:52;;;;;;;1.42;0.60;;;17.40;89.80;;;16.97;100.00;97530.72;4952359;28;20469;-63
2022/08/13 03:29:23;;;;;;;3.33;0.70;;;17.40;89.60;;;17.20;100.00;97525.66;4938691;29;20058;-64
2022/08/13 03:32:11;;;;;;;1.95;0.68;;;17.50;89.60;;;17.11;100.00;97532.41;4949341;28;20515;-64
2022/08/13 03:34:39;;;;;;;2.83;0.70;;;17.50;89.50;;;17.08;100.00;97525.59;4944070;29;20052;-64
2022/08/13 03:37:10;;;;;;;1.75;0.55;;;17.50;89.40;;;16.98;100.00;97534.19;4958018;28;20186;-65
2022/08/13 03:39:37;;;;;;;3.75;0.55;;;17.50;89.50;;;16.84;100.00;97528.09;4944489;28;20063;-65
2022/08/13 03:42:08;;;;;;;1.30;0.55;;;17.40;89.70;;;16.60;100.00;97533.19;4944036;28;20075;-64
2022/08/13 03:44:41;;;;;;;1.63;0.60;;;17.20;90.20;;;16.53;100.00;97531.94;4946593;28;20055;-64
2022/08/13 03:47:08;;;;;;;2.08;0.70;;;17.10;90.40;;;16.42;100.00;97529.19;4939794;28;20043;-64
2022/08/13 03:49:55;;;;;;;1.10;0.70;;;17.00;90.60;;;16.33;100.00;97529.81;4941688;29;20051;-64
2022/08/13 03:52:22;;;;;;;2.22;0.70;;;16.90;90.80;;;16.35;100.00;97533.16;4940586;29;20048;-65
2022/08/13 03:55:15;;;;;;;1.33;0.80;;;16.90;91.00;;;16.26;100.00;97527.63;4937944;28;20051;-64
2022/08/13 03:57:44;;;;;;;2.83;0.75;;;16.80;91.20;;;16.28;100.00;97533.59;4946002;28;20163;-65
2022/08/13 04:00:53;;;;;;;2.38;0.60;;;16.80;91.20;;;16.20;100.00;97533.25;4940658;29;20075;-65
2022/08/13 04:03:22;;;;;;;1.60;0.77;;;16.80;91.40;;;16.08;100.00;97534.06;4942243;28;20051;-65
2022/08/13 04:05:53;;;;;;;1.80;0.50;;;16.70;91.40;;;15.93;100.00;97535.91;4942919;29;20133;-65
2022/08/13 04:08:26;;;;;;;3.40;0.80;;;16.70;91.70;;;15.70;100.00;97534.75;4943451;28;20121;-65
2022/08/13 04:10:55;;;;;;;1.50;0.70;;;16.50;91.90;;;15.66;100.00;97541.09;4956565;28;20237;-64
2022/08/13 04:13:24;;;;;;;1.77;0.70;;;16.40;92.30;;;15.61;100.00;97546.63;4956741;28;20170;-65
2022/08/13 04:16:25;;;;;;;1.90;0.70;;;16.30;92.50;;;15.48;100.00;97545.72;4950636;28;20048;-64
2022/08/13 04:19:01;;;;;;;1.60;0.73;;;16.20;92.70;;;15.52;100.00;97549.00;4939080;28;20500;-65
2022/08/13 04:21:32;;;;;;;;;;;16.10;93.00;;;15.38;100.00;97544.63;4942042;29;20056;-64
2022/08/13 04:24:03;;;;;;;2.45;0.80;;;16.10;93.30;;;15.31;100.00;97543.34;4952579;28;19927;-65
2022/08/13 04:26:32;;;;;;;3.30;0.70;;;16.00;93.40;;;15.41;100.00;97545.25;4938352;28;20475;-65
2022/08/13 04:29:04;;;;;;;1.95;0.63;;;16.10;93.70;;;15.41;100.00;97545.25;4952955;28;20057;-65
2022/08/13 04:31:34;;;;;;;4.25;0.90;;;16.00;93.50;;;15.39;100.00;97551.53;4954931;28;20130;-65
2022/08/13 04:34:24;;;;;;;;;;;16.10;93.50;;;15.35;100.00;97550.91;4938125;28;20536;-65
2022/08/13 04:37:07;;;;;;;7.90;0.70;;;16.00;93.60;;;15.37;100.00;97551.63;4942917;29;19934;-64
2022/08/13 04:39:45;;;;;;;1.98;0.80;;;16.00;93.60;;;15.42;100.00;97552.19;4953073;28;20060;-65
2022/08/13 04:42:53;;;;;;;2.55;0.68;;;16.10;93.50;;;15.56;100.00;97553.09;4954571;28;20043;-65
2022/08/13 04:45:23;;;;;;;4.60;0.82;;;16.10;93.50;;;15.48;100.00;97551.78;4938632;28;20582;-64
2022/08/13 04:47:53;;;;;;;4.78;0.70;;;16.20;93.60;;;15.62;100.00;97556.16;4940762;28;20109;-64
2022/08/13 04:50:21;;;;;;;2.75;0.80;;;16.20;93.50;;;15.57;100.00;97555.59;4940828;29;20687;-65
2022/08/13 04:52:50;;;;;;;1.55;0.70;;;16.30;93.50;;;15.67;100.00;97558.50;4954076;28;20074;-64
2022/08/13 04:55:18;;;;;;;1.73;0.60;;;16.30;93.40;;;15.58;100.00;97554.69;4937448;28;20044;-64
2022/08/13 04:57:46;;;;;;;4.03;0.80;;;16.40;93.30;;;15.81;100.00;97563.72;4953503;28;20043;-64
2022/08/13 05:00:32;;;;;;;3.45;0.80;;;16.40;93.20;;;15.93;100.00;97556.84;4954183;28;20139;-64
2022/08/13 05:03:15;;;;;;;4.10;1.13;;;16.50;93.20;;;15.97;100.00;97557.50;4942285;28;20051;-64
2022/08/13 05:05:47;;;;;;;5.07;0.80;;;16.50;93.00;;;16.05;100.00;97557.81;4942272;29;20055;-65
2022/08/13 05:08:16;;;;;;;3.28;0.80;;;16.60;92.90;;;16.07;100.00;97559.41;4938595;28;20071;-65
2022/08/13 05:10:46;;;;;;;2.78;0.88;;;16.70;92.80;;;16.19;100.00;97562.16;4941166;28;20061;-64
2022/08/13 05:13:30;;;;;;;8.73;0.80;;;16.70;92.70;;;16.37;100.00;97554.88;4941609;28;20134;-65
2022/08/13 05:16:12;;;;;;;2.70;0.60;;;16.90;92.60;;;16.47;100.00;97558.56;4950989;28;20108;-65
2022/08/13 05:18:45;;;;;;;4.20;0.90;;;17.00;92.30;;;16.52;100.00;97559.09;4954096;28;20142;-64
2022/08/13 05:21:14;;;;;;;2.00;1.00;;;17.10;92.30;;;16.52;100.00;97551.22;4941415;29;20102;-65
2022/08/13 05:23:47;;;;;;;3.90;0.60;;;17.20;92.20;;;16.62;100.00;97557.53;4939553;29;20131;-65
2022/08/13 05:26:33;;;;;;;2.55;0.60;;;17.20;92.00;;;16.73;100.00;97555.00;4937748;28;20168;-65
2022/08/13 05:29:21;;;;;;;3.17;0.90;;;17.30;91.90;;;16.72;100.00;97563.00;4937885;28;20590;-65
2022/08/13 05:31:46;;;;;;;2.75;0.70;;;17.40;92.00;;;16.79;100.00;97563.44;4940759;28;20044;-65
2022/08/13 05:34:28;;;;;;;2.13;0.80;;;17.50;92.00;;;16.84;100.00;97559.56;4938372;28;20183;-65
2022/08/13 05:36:58;;;;;;;1.27;0.70;;;17.50;91.90;;;16.95;100.00;97561.47;4953845;28;20085;-65
2022/08/13 05:39:46;;;;;;;1.92;0.60;;;17.70;91.80;;;17.10;100.00;97563.00;4943162;28;20055;-65
2022/08/13 05:42:18;;;;;;;2.58;0.60;;;17.80;91.50;;;17.26;100.00;97561.94;4954736;28;20047;-65
2022/08/13 05:44:55;;;;;;;1.65;0.65;;;17.90;91.40;;;17.41;100.00;97560.88;4940198;28;20055;-65
2022/08/13 05:47:23;;;;;;;1.52;0.80;;;18.10;91.40;;;17.47;100.00;97562.22;4937001;28;20162;-65
2022/08/13 05:49:53;;;;;;;1.55;0.73;;;18.20;91.20;;;17.62;100.00;97562.91;4956103;28;20114;-65
2022/08/13 05:52:27;;;;;;;3.28;0.88;;;18.40;90.90;;;17.77;100.00;97560.03;4938056;28;20063;-65
2022/08/13 05:55:10;;;;;;;2.72;1.55;;;18.50;91.30;;;17.73;100.00;97563.81;4939221;29;20560;-65
2022/08/13 05:57:57;;;;;;;3.22;0.65;;;18.60;91.50;;;17.85;100.00;97556.88;4944066;29;20073;-64
2022/08/13 06:03:25;;;;;;;5.75;0.80;;;18.80;90.80;;;17.92;100.00;97560.72;4943537;29;20105;-65
2022/08/13 06:06:16;;;;;;;2.80;0.70;;;18.90;91.50;;;18.19;100.00;97554.41;4941348;28;20146;-65
2022/08/13 06:08:56;;;;;;;2.42;0.68;;;19.00;91.10;;;18.41;100.00;97555.47;4938402;28;20500;-65
2022/08/13 06:11:29;;;;;;;1.90;0.60;;;19.10;90.50;;;18.51;100.00;97559.88;4939100;29;20454;-65
2022/08/13 06:14:23;;;;;;;0.90;0.60;;;19.30;90.50;;;18.59;100.00;97554.06;4940324;28;20492;-65
2022/08/13 06:16:59;;;;;;;2.33;0.63;;;19.50;90.10;;;18.84;100.00;97560.09;4937990;28;20048;-65
2022/08/13 06:19:30;;;;;;;1.65;0.60;;;19.70;90.00;;;18.91;100.00;97561.34;4939552;28;20391;-65
2022/08/13 06:22:04;;;;;;;2.22;0.90;;;19.80;89.20;;;19.09;100.00;97554.66;4940173;28;20501;-65
2022/08/13 06:24:37;;;;;;;1.58;0.50;;;20.00;89.10;;;19.27;100.00;97557.63;4940855;28;20051;-65
2022/08/13 06:27:22;;;;;;;3.63;0.80;;;20.20;89.50;;;19.49;100.00;97562.03;4940126;29;20056;-65
2022/08/13 06:30:12;;;;;;;4.80;0.82;;;20.30;88.50;;;19.53;100.00;97557.38;4938286;29;20052;-65
2022/08/13 06:33:03;;;;;;;1.60;0.70;;;20.40;87.30;;;19.72;100.00;97556.78;4943827;29;20055;-65
2022/08/13 06:36:04;;;;;;;7.20;1.08;;;20.60;87.70;;;19.87;100.00;97557.34;4939085;28;20519;-65
2022/08/13 06:38:48;;;;;;;1.63;0.70;;;20.80;87.90;;;19.92;100.00;97557.81;4953970;28;20047;-65
2022/08/13 06:41:21;;;;;;;2.50;0.70;;;20.90;86.90;;;19.85;100.00;97565.38;4937715;29;20158;-65
2022/08/13 06:43:53;;;;;;;2.28;0.60;;;21.10;86.30;;;20.14;100.00;97556.88;4939633;28;20051;-65
2022/08/13 06:46:30;;;;;;;3.17;0.60;;;21.20;85.70;;;20.02;100.00;97556.91;4944028;28;20123;-65
2022/08/13 06:49:00;;;;;;;3.17;0.80;;;21.20;84.90;;;20.03;100.00;97553.34;4953611;28;20460;-65
2022/08/13 06:51:31;;;;;;;4.03;0.80;;;21.30;85.10;;;20.01;100.00;97557.06;4942575;28;20106;-65
2022/08/13 06:54:08;;;;;;;2.08;0.90;;;21.30;84.30;;;20.12;100.00;97559.66;4938436;29;20052;-65
2022/08/13 06:56:58;;;;;;;3.53;0.70;;;21.30;84.60;;;20.11;100.00;97565.88;4936397;28;20055;-65
2022/08/13 06:59:47;;;;;;;2.25;0.77;;;21.40;84.20;;;20.10;100.00;97566.84;4937292;28;20069;-65
2022/08/13 07:02:36;;;;;;;4.10;0.98;;;21.40;83.80;;;20.16;100.00;97566.34;4952889;28;20043;-65
2022/08/13 07:05:04;;;;;;;9.85;0.85;;;21.50;83.60;;;20.31;100.00;97573.97;4959873;28;20137;-65
2022/08/13 07:07:44;;;;;;;4.38;1.00;;;21.50;84.00;;;20.43;100.00;97573.75;4940740;28;20517;-65
2022/08/13 07:10:16;;;;;;;5.70;0.90;;;21.60;83.10;;;20.57;100.00;97571.81;4953552;28;20062;-65
2022/08/13 07:12:43;;;;;;;4.03;0.90;;;21.60;81.80;;;20.58;100.00;97576.97;4941660;28;20570;-65
2022/08/13 07:15:15;;;;;;;3.33;0.82;;;21.60;81.90;;;20.65;100.00;97585.22;4947015;28;20056;-65
2022/08/13 07:18:05;;;;;;;1.73;0.70;;;21.70;81.60;;;20.85;100.00;97573.81;4940121;29;20044;-65
2022/08/13 07:20:33;;;;;;;1.65;0.70;;;21.80;81.60;;;20.96;100.00;97577.34;4955809;28;20107;-65
2022/08/13 07:23:04;;;;;;;1.73;0.60;;;21.90;81.60;;;21.23;100.00;97579.41;4955745;28;20146;-65
2022/08/13 07:25:54;;;;;;;4.70;0.80;;;22.00;81.50;;;21.22;100.00;97578.59;4939903;29;20055;-65
2022/08/13 07:28:27;;;;;;;1.20;0.60;;;22.20;81.40;;;21.28;100.00;97574.59;4955128;28;20150;-65
2022/08/13 07:31:23;;;;;;;1.38;0.60;;;22.20;80.70;;;21.41;100.00;97579.66;4954341;28;20055;-65
2022/08/13 07:33:53;;;;;;;2.10;0.85;;;22.30;80.80;;;21.42;100.00;97579.56;4954330;28;20114;-65
2022/08/13 07:36:29;;;;;;;2.63;0.60;;;22.30;80.40;;;21.68;100.00;97579.06;4941376;28;20142;-65
2022/08/13 07:39:05;;;;;;;1.60;0.57;;;22.40;80.40;;;21.83;100.00;97584.81;4960316;28;20048;-65
2022/08/13 07:41:45;;;;;;;2.85;0.70;;;22.60;80.30;;;21.72;100.00;97576.03;4942733;29;20054;-65
2022/08/13 07:44:30;;;;;;;2.28;0.70;;;22.60;79.90;;;21.84;100.00;97582.03;4942764;28;20047;-65
2022/08/13 07:47:15;;;;;;;2.03;0.70;;;22.70;80.10;;;21.98;100.00;97577.31;4957913;28;20047;-65
2022/08/13 07:49:50;;;;;;;5.53;0.65;;;22.80;80.30;;;22.14;100.00;97583.72;4943434;28;20065;-65
2022/08/13 07:52:18;;;;;;;1.65;0.65;;;22.90;79.90;;;22.08;100.00;97578.19;4938563;29;20127;-65
2022/08/13 07:54:47;;;;;;;2.58;0.90;;;22.90;79.30;;;22.25;100.00;97572.22;4940824;29;20047;-66
2022/08/13 07:57:17;;;;;;;2.17;0.68;;;23.00;79.80;;;22.39;100.00;97573.63;4946504;28;20102;-65
2022/08/13 07:59:54;;;;;;;1.02;0.60;;;23.20;79.00;;;22.60;100.00;97575.28;4946120;28;20082;-65
2022/08/13 08:02:42;;;;;;;1.50;0.60;;;23.30;79.10;;;22.66;100.00;97578.19;4948689;28;20133;-66
2022/08/13 08:05:14;;;;;;;2.83;0.75;;;23.60;79.20;;;22.70;100.00;97574.31;4940336;28;20591;-66
2022/08/13 08:07:50;;;;;;;1.73;0.60;;;23.70;78.50;;;22.73;100.00;97574.00;4942924;28;20149;-66
2022/08/13 08:10:37;;;;;;;2.90;0.70;;;23.60;77.70;;;22.86;100.00;97575.53;4942089;28;20059;-65
2022/08/13 08:13:04;;;;;;;3.72;0.60;;;23.60;78.20;;;22.90;100.00;97579.56;4955080;28;20503;-65
2022/08/13 08:15:35;;;;;;;0.98;0.60;;;23.70;77.70;;;23.09;100.00;97576.06;4938170;28;20114;-65
2022/08/13 08:18:22;;;;;;;3.75;0.60;;;23.80;77.90;;;23.19;100.00;97571.56;4943432;28;20060;-64
2022/08/13 08:21:09;;;;;;;6.32;1.15;;;23.90;77.80;;;23.27;100.00;97576.16;4940722;28;20058;-65
2022/08/13 08:23:59;;;;;;;3.92;0.60;;;24.10;77.30;;;23.54;100.00;97570.03;4942130;29;20498;-65
2022/08/13 08:26:32;;;;;;;2.78;0.60;;;24.30;77.00;;;23.64;100.00;97569.97;4956668;28;20051;-66
2022/08/13 08:29:04;;;;;;;1.83;0.50;;;24.50;76.70;;;23.79;100.00;97569.38;4954352;28;20532;-65
2022/08/13 08:31:39;;;;;;;1.50;0.60;;;24.60;76.80;;;23.99;100.00;97572.72;4941354;28;20054;-65
2022/08/13 08:34:27;;;;;;;1.55;0.60;;;24.70;76.60;;;24.30;100.00;97563.56;4940721;28;20481;-65
2022/08/13 08:36:55;;;;;;;3.25;0.70;;;25.00;75.90;;;24.56;100.00;97564.50;4940046;28;20087;-65
2022/08/13 08:45:02;;;;;;;1.67;0.60;;;25.50;74.10;;;24.93;100.00;97565.22;4941744;28;20100;-65
2022/08/13 08:47:37;;;;;;;6.45;0.80;;;25.80;73.70;;;25.09;100.00;97554.72;4940766;28;20146;-65
2022/08/13 08:50:24;;;;;;;1.48;0.50;;;26.10;72.60;;;25.19;100.00;97549.34;4940201;28;20055;-65
2022/08/13 08:56:04;;;;;;;2.15;0.65;;;26.50;71.60;;;25.72;100.00;97560.69;4938292;28;20044;-65
2022/08/13 08:58:36;;;;;;;1.52;0.63;;;26.70;70.70;;;26.57;100.00;97556.06;4940545;28;20051;-66
2022/08/13 09:01:13;;;;;;;1.17;0.50;;;26.90;70.70;;;26.88;97.51;97550.03;4952705;28;20055;-66
2022/08/13 09:03:42;;;;;;;2.15;0.55;;;27.30;69.30;;;27.69;94.07;97548.97;4950414;28;20551;-65
2022/08/13 09:06:28;;;;;;;1.55;0.45;;;27.60;69.10;;;28.92;93.12;97542.75;4936159;28;20150;-65
2022/08/13 09:09:17;;;;;;;1.75;0.75;;;28.10;69.30;;;29.05;84.00;97544.78;4938518;28;20086;-65
2022/08/13 09:11:55;;;;;;;1.00;0.40;;;28.50;67.60;;;28.84;86.76;97548.19;4936297;29;20505;-65
2022/08/13 09:14:30;;;;;;;4.35;0.50;;;28.60;67.60;;;28.36;86.11;97543.03;4939178;28;20190;-66
2022/08/13 09:17:03;;;;;;;2.75;0.60;;;28.50;66.90;;;28.15;86.56;97548.22;4951900;28;20059;-66
2022/08/13 09:19:41;;;;;;;1.15;0.60;;;28.80;67.10;;;28.91;83.03;97541.09;4948668;28;20142;-66
2022/08/13 09:22:24;;;;;;;0.88;0.47;;;28.80;66.60;;;30.09;80.79;97538.53;4940089;28;20057;-66
2022/08/13 09:24:58;;;;;;;1.80;0.60;;;28.90;67.00;;;29.94;75.41;97542.06;4939054;28;20051;-65
2022/08/13 09:27:30;;;;;;;2.08;0.40;;;29.30;65.70;;;30.56;78.63;97534.44;4952875;28;20429;-65
2022/08/13 09:30:17;;;;;;;2.28;0.50;;;29.60;66.40;;;29.91;76.28;97537.09;4938259;28;20054;-65
2022/08/13 09:32:56;;;;;;;3.55;0.40;;;29.50;65.20;;;29.68;70.94;97539.94;4938086;28;20047;-65
2022/08/13 09:35:25;;;;;;;1.85;0.40;;;29.40;64.00;;;30.00;73.39;97535.97;4940086;28;20516;-66
2022/08/13 09:38:07;;;;;;;1.50;0.50;;;29.40;64.80;;;30.37;68.83;97527.91;4939574;28;20051;-65
2022/08/13 09:40:50;;;;;;;0.77;0.40;;;29.80;63.70;;;31.23;67.98;97535.78;4942200;28;20050;-65
2022/08/13 09:43:39;;;;;;;1.10;0.50;;;30.20;64.50;;;31.19;64.70;97539.88;4951175;28;20051;-65
2022/08/13 09:46:23;;;;;;;0.80;0.40;;;30.30;63.60;;;30.41;67.03;97540.72;4940217;28;20139;-64
2022/08/13 09:48:57;;;;;;;2.88;0.50;;;30.00;63.40;;;30.21;65.81;97537.00;4941227;28;20051;-65
2022/08/13 09:51:34;;;;;;;1.38;0.43;;;29.90;62.90;;;29.50;66.76;97542.97;4942061;28;20058;-64
2022/08/13 09:54:24;;;;;;;1.27;0.40;;;29.70;62.80;;;30.46;64.67;97528.63;4956401;28;20051;-65
2022/08/13 09:56:59;;;;;;;2.95;0.60;;;29.90;62.90;;;30.84;59.13;97529.13;4943416;28;20154;-65
2022/08/13 09:59:29;;;;;;;1.17;0.43;;;30.10;61.80;;;30.78;61.02;97524.53;4942135;28;20525;-65
2022/08/13 10:02:09;;;;;;;2.80;0.50;;;30.30;62.20;;;30.84;62.50;97521.94;4946695;28;20242;-65
2022/08/13 10:04:42;;;;;;;1.38;0.50;;;30.50;62.10;;;29.66;66.74;97525.88;4941787;28;20125;-65
2022/08/13 10:07:13;;;;;;;1.13;0.40;;;29.70;62.60;;;30.33;64.95;97532.81;4939646;28;20414;-66
2022/08/13 10:09:47;;;;;;;4.88;0.65;;;29.90;62.80;;;30.11;63.59;97526.63;4942896;28;20484;-65
2022/08/13 10:12:34;;;;;;;0.75;0.43;;;29.90;62.40;;;30.17;68.44;97527.69;4942260;28;20090;-65
2022/08/13 10:15:02;;;;;;;2.10;0.50;;;30.20;63.20;;;31.38;64.20;97520.38;4941183;28;20636;-65
2022/08/13 10:17:55;;;;;;;4.22;0.47;;;30.60;62.80;;;29.88;66.42;97524.13;4940497;28;20773;-65
2022/08/13 10:20:41;;;;;;;1.85;0.60;;;30.50;62.40;;;30.00;68.22;97522.59;4940236;28;20059;-67
2022/08/13 10:23:11;;;;;;;3.17;0.70;;;30.10;62.70;;;29.96;66.97;97512.44;4944198;29;20141;-66
2022/08/13 10:25:43;;;;;;;2.00;0.60;;;30.00;62.70;;;30.09;66.10;97512.59;4952884;28;20166;-66
2022/08/13 10:28:32;;;;;;;1.60;0.40;;;30.00;62.50;;;31.61;62.13;97513.91;4938064;28;20454;-66
2022/08/13 10:31:08;;;;;;;1.95;0.40;;;30.60;62.90;;;32.22;60.49;97502.31;4942372;28;20043;-65
2022/08/13 10:33:55;;;;;;;2.58;0.50;;;31.10;62.50;;;30.69;60.56;97504.28;4938813;28;20078;-66
2022/08/13 10:36:25;;;;;;;0.80;0.40;;;30.90;61.40;;;30.32;63.36;97498.22;4939434;28;20127;-66
2022/08/13 10:39:00;;;;;;;2.20;0.57;;;30.70;61.70;;;29.90;65.56;97500.69;4940162;28;20090;-66
2022/08/13 10:41:31;;;;;;;3.97;0.50;;;30.40;62.10;;;30.66;63.40;97485.91;4937916;28;20058;-66
2022/08/13 10:44:01;;;;;;;4.30;0.88;;;30.60;61.90;;;30.61;62.41;97491.88;4941677;28;20062;-65
2022/08/13 10:46:31;;;;;;;6.05;0.50;;;30.50;61.80;;;30.12;63.05;97498.00;4955826;28;20059;-66
2022/08/13 10:49:04;;;;;;;4.32;0.60;;;30.30;61.80;;;30.33;63.08;97505.22;4942439;28;20055;-65
2022/08/13 10:51:31;;;;;;;2.28;0.60;;;30.20;61.90;;;30.30;65.44;97498.41;4939131;28;20414;-65
2022/08/13 10:54:11;;;;;;;0.85;0.50;;;30.30;62.30;;;31.08;61.22;97493.00;4942172;28;20040;-65
2022/08/13 10:56:58;;;;;;;1.27;0.50;;;30.70;61.90;;;31.49;59.27;97494.88;4935797;28;20043;-64
2022/08/13 10:59:26;;;;;;;1.05;0.50;;;31.20;61.60;;;31.65;58.18;97494.53;4953031;28;20047;-63
2022/08/13 11:01:53;;;;;;;1.30;0.55;;;31.40;61.00;;;30.74;59.72;97488.44;4937586;28;20069;-65
2022/08/13 11:04:20;;;;;;;3.70;0.50;;;31.30;60.60;;;31.90;57.01;97496.66;4936281;28;20070;-64
2022/08/13 11:06:58;;;;;;;3.40;0.60;;;31.60;60.80;;;31.36;57.73;97503.69;4939516;28;20126;-64
2022/08/13 11:09:28;;;;;;;1.45;0.50;;;31.40;60.80;;;32.31;56.33;97479.59;4937758;28;20060;-63
2022/08/13 11:12:05;;;;;;;0.73;0.43;;;31.60;60.50;;;32.42;55.16;97470.91;4951305;28;20183;-64
2022/08/13 11:14:34;;;;;;;2.08;1.00;;;31.80;60.60;;;31.64;56.19;97478.63;4953588;28;20739;-63